Concord, TX (77850)

9:31 AM CST on February 19, 2017 (GMT -0600)
2.3 Miles SSE of Centerville, TX | | Change Station

Elev 430 ft 31.23 °N, 95.97 °W | Updated 1 minute ago

Overcast
Overcast
67.9 °F
Feels Like 67.9 °F
N
8.0
Wind Variable Wind from ESE
Gusts 9.0 mph

Today
High -- | Low -- °F
--% Chance of Precip.
Yesterday
High -- | Low -- °F
Precip. -- in
Pressure 29.92 in
Visibility 7.0 miles
Clouds Overcast 600 ft
Dew Point 66 °F
Humidity 95%
Rainfall 0.00 in
Snow Depth Not available.
7:01 AM 6:15 PM
Last Quarter, 42% visible
METAR KLXY 191515Z AUTO 14009G14KT 7SM OVC006 20/19 A2992 RMK AO2 T02000188
Pressure 29.92 in
Visibility 7.0 miles
Clouds Overcast 600 ft
Dew Point 66 °F
Humidity 95%
Rainfall 0.00 in
Snow Depth Not available.
7:01 AM 6:15 PM
Last Quarter, 42% visible
METAR KLXY 191515Z AUTO 14009G14KT 7SM OVC006 20/19 A2992 RMK AO2 T02000188

Get Your Daily Forecast Email!

Thanks for signing up!

Be on the lookout for a verification email in your inbox.

You'll start receiving the daily forecast at 8 AM.

×

10-Day Weather Forecast

Almanac

Astronomy

Feb. 19, 2017 Rise Set
Actual Time
Civil Twilight
Nautical Twilight
Astronomical Twilight
Moon
Length of Visible Light
Length of Day
Tomorrow will be .
, % of the Moon is Illuminated

Today's Extremes

State Highs State Lows

Community

WunderPhotos

Upload Photos

1,962,540 photos uploaded!

WunderBlog® & News

Nearby

Air Quality

  Air Quality AQ Index Pollutant
Not available.

Snow Depth

Station Depth Elevation

Earthquake Activity

City Distance Mag. Time & Date
Minimum magnitude displayed is 2.5.

Coastal Water Temperatures

Place Temperature

Stations

Nearby Weather Stations

Station Location Temp. Windchill Dew Point Humidity Wind Precip. Elev Updated Type
                   

Watches & Warnings

There are currently no watches in effect.